地図

経路データ

SID SEASON NUMBER BASIN SUBBASIN NAME ISO_TIME NATURE LAT LON WMO_WIND WMO_PRES WMO_AGENCY TRACK_TYPE DIST2LAND LANDFALL IFLAG USA_AGENCY USA_ATCF_ID USA_LAT USA_LON USA_RECORD USA_STATUS USA_WIND USA_PRES USA_SSHS USA_R34_NE USA_R34_SE USA_R34_SW USA_R34_NW USA_R50_NE USA_R50_SE USA_R50_SW USA_R50_NW USA_R64_NE USA_R64_SE USA_R64_SW USA_R64_NW USA_POCI USA_ROCI USA_RMW USA_EYE TOKYO_LAT TOKYO_LON TOKYO_GRADE TOKYO_WIND TOKYO_PRES TOKYO_R50_DIR TOKYO_R50_LONG TOKYO_R50_SHORT TOKYO_R30_DIR TOKYO_R30_LONG TOKYO_R30_SHORT TOKYO_LAND CMA_LAT CMA_LON CMA_CAT CMA_WIND CMA_PRES HKO_LAT HKO_LON HKO_CAT HKO_WIND HKO_PRES NEWDELHI_LAT NEWDELHI_LON NEWDELHI_GRADE NEWDELHI_WIND NEWDELHI_PRES NEWDELHI_CI NEWDELHI_DP NEWDELHI_POCI REUNION_LAT REUNION_LON REUNION_TYPE REUNION_WIND REUNION_PRES REUNION_TNUM REUNION_CI REUNION_RMW REUNION_R34_NE REUNION_R34_SE REUNION_R34_SW REUNION_R34_NW REUNION_R50_NE REUNION_R50_SE REUNION_R50_SW REUNION_R50_NW REUNION_R64_NE REUNION_R64_SE REUNION_R64_SW REUNION_R64_NW BOM_LAT BOM_LON BOM_TYPE BOM_WIND BOM_PRES BOM_TNUM BOM_CI BOM_RMW BOM_R34_NE BOM_R34_SE BOM_R34_SW BOM_R34_NW BOM_R50_NE BOM_R50_SE BOM_R50_SW BOM_R50_NW BOM_R64_NE BOM_R64_SE BOM_R64_SW BOM_R64_NW BOM_ROCI BOM_POCI BOM_EYE BOM_POS_METHOD BOM_PRES_METHOD NADI_LAT NADI_LON NADI_CAT NADI_WIND NADI_PRES WELLINGTON_LAT WELLINGTON_LON WELLINGTON_WIND WELLINGTON_PRES DS824_LAT DS824_LON DS824_STAGE DS824_WIND DS824_PRES TD9636_LAT TD9636_LON TD9636_STAGE TD9636_WIND TD9636_PRES TD9635_LAT TD9635_LON TD9635_WIND TD9635_PRES TD9635_ROCI NEUMANN_LAT NEUMANN_LON NEUMANN_CLASS NEUMANN_WIND NEUMANN_PRES MLC_LAT MLC_LON MLC_CLASS MLC_WIND MLC_PRES USA_GUST BOM_GUST BOM_GUST_PER REUNION_GUST REUNION_GUST_PER USA_SEAHGT USA_SEARAD_NE USA_SEARAD_SE USA_SEARAD_SW USA_SEARAD_NW STORM_SPEED STORM_DIR
1989018S10082 1989 6 SI MM EDME 1989-01-17 18:00:00 TS -9.50000 82.0000 main 1732 1732 O_________O_O_ jtwc_sh SH071989 -9.50000 82.0000 20 -1 -9.50000 82.0000 1 20 -9.50000 82.0000 TC 20 7 162
1989018S10082 1989 6 SI MM EDME 1989-01-17 21:00:00 TS -9.80842 82.0997 main 1767 1767 P_________P_P_ SH071989 -9.80750 82.0975 20 -1 -9.81024 82.1042 1 20 -9.80750 82.0975 TC 20 6 162
1989018S10082 1989 6 SI MM EDME 1989-01-18 00:00:00 TS -10.1000 82.2000 main 1801 1801 O_________O_O_ jtwc_sh SH071989 -10.1000 82.2000 20 -1 -10.1000 82.2000 1 20 -10.1000 82.2000 TC 20 6 160
1989018S10082 1989 6 SI MM EDME 1989-01-18 03:00:00 TS -10.3615 82.2988 main 1836 1836 P_________P_P_ SH071989 -10.3650 82.3075 20 -1 -10.3544 82.2815 1 20 -10.3650 82.3075 TC 20 5 160
1989018S10082 1989 6 SI MM EDME 1989-01-18 06:00:00 TS -10.5935 82.3845 main 1859 1859 O_________P_O_ jtwc_sh SH071989 -10.6000 82.4000 20 -1 -10.5806 82.3535 1 20 -10.6000 82.4000 TC 20 5 163
1989018S10082 1989 6 SI MM EDME 1989-01-18 09:00:00 TS -10.8022 82.4363 main 1881 1881 P_________P_P_ SH071989 -10.8075 82.4426 20 -1 -10.7916 82.4238 1 20 -10.8075 82.4426 TC 20 4 164
1989018S10082 1989 6 SI MM EDME 1989-01-18 12:00:00 TS -11.0000 82.5000 main 1905 1905 O_________O_O_ jtwc_sh SH071989 -11.0000 82.5000 20 -1 -11.0000 82.5000 1 20 -11.0000 82.5000 TC 20 5 154
1989018S10082 1989 6 SI MM EDME 1989-01-18 15:00:00 TS -11.2061 82.6417 main 1928 1928 P_________P_P_ SH071989 -11.1925 82.6500 20 -1 -11.2332 82.6251 1 21 -11.1925 82.6500 TC 20 5 146
1989018S10082 1989 6 SI MM EDME 1989-01-18 18:00:00 TS -11.4217 82.7841 main 1953 1953 O_________P_O_ jtwc_sh SH071989 -11.4000 82.8000 20 -1 -11.4650 82.7522 1 22 -11.4000 82.8000 TC 20 5 152
1989018S10082 1989 6 SI MM EDME 1989-01-18 21:00:00 TS -11.6581 82.8811 main 1988 1988 P_________P_P_ SH071989 -11.6425 82.8950 22 -1 -11.6894 82.8532 1 23 -11.6425 82.8950 TC 22 5 167
1989018S10082 1989 6 SI MM EDME 1989-01-19 00:00:00 TS -11.9000 82.9000 main 2010 2010 O_________O_O_ jtwc_sh SH071989 -11.9000 82.9000 25 -1 -11.9000 82.9000 1 25 -11.9000 82.9000 TC 25 5 190
1989018S10082 1989 6 SI MM EDME 1989-01-19 03:00:00 TS -12.1489 82.7892 main 2031 2031 P_________P_P_ SH071989 -12.1725 82.7651 25 -1 -12.1016 82.8375 1 25 -12.1725 82.7651 TC 25 5 209
1989018S10082 1989 6 SI MM EDME 1989-01-19 06:00:00 TS -12.3625 82.6410 main 2062 2062 O_________P_O_ jtwc_sh SH071989 -12.4000 82.6000 25 -1 -12.2876 82.7229 1 25 -12.4000 82.6000 TC 25 4 214
1989018S10082 1989 6 SI MM EDME 1989-01-19 09:00:00 TS -12.4999 82.5506 main 2073 2072 P_________P_P_ SH071989 -12.5225 82.5275 25 -1 -12.4547 82.5968 1 25 -12.5225 82.5275 TC 25 3 210
1989018S10082 1989 6 SI MM EDME 1989-01-19 12:00:00 TS -12.6000 82.5000 main 2083 2083 O_________O_O_ jtwc_sh SH071989 -12.6000 82.5000 25 -1 -12.6000 82.5000 1 25 -12.6000 82.5000 TC 25 2 197
1989018S10082 1989 6 SI MM EDME 1989-01-19 15:00:00 TS -12.7072 82.4850 main 2094 2094 P_________P_P_ SH071989 -12.7000 82.4850 27 -1 -12.7215 82.4849 1 26 -12.7000 82.4850 TC 27 2 172
1989018S10082 1989 6 SI MM EDME 1989-01-19 18:00:00 TS -12.8075 82.5016 main 2105 2105 O_________P_O_ jtwc_sh SH071989 -12.8000 82.5000 30 -1 -12.8225 82.5049 1 27 -12.8000 82.5000 TC 30 2 163
1989018S10082 1989 6 SI MM EDME 1989-01-19 21:00:00 TS -12.9041 82.5441 main 2116 2116 P_________P_P_ SH071989 -12.9000 82.5425 30 -1 -12.9122 82.5474 1 28 -12.9000 82.5425 TC 30 2 153
1989018S10082 1989 6 SI MM EDME 1989-01-20 00:00:00 TS -13.0000 82.6000 main 2129 2129 O_________O_O_ jtwc_sh SH071989 -13.0000 82.6000 30 -1 -13.0000 82.6000 1 30 -13.0000 82.6000 TC 30 2 153
1989018S10082 1989 6 SI MM EDME 1989-01-20 03:00:00 TS -13.1000 82.6476 main 2140 2140 P_________P_P_ SH071989 -13.1000 82.6500 30 -1 -13.1000 82.6428 1 31 -13.1000 82.6500 TC 30 2 167
1989018S10082 1989 6 SI MM EDME 1989-01-20 06:00:00 TS -13.1846 82.6362 main 2151 2151 O____O____P_O_ jtwc_sh SH071989 -13.2000 82.7000 30 -1 -13.0000 81.9000 3 28 997 2.50000 2.50000 -13.2000 82.6925 1 32 -13.2000 82.7000 TC 30 2 188
1989018S10082 1989 6 SI MM EDME 1989-01-20 09:00:00 TS -13.2661 82.6363 main 2162 2162 P____P____P_P_ SH071989 -13.3000 82.7500 32 -1 -13.0625 81.9625 3 28 997 -13.3000 82.7459 1 33 -13.3000 82.7500 TC 32 2 0
1989018S10082 1989 6 SI MM EDME 1989-01-20 12:00:00 TS -13.3400 82.6400 main 2162 2162 O____O____O_O_ jtwc_sh SH071989 -13.4000 82.8000 35 0 -13.1000 82.0000 3 28 997 2.50000 2.50000 -13.4000 82.8000 2 35 -13.4000 82.8000 TC 35 1 0
1989018S10082 1989 6 SI MM EDME 1989-01-20 15:00:00 TS -13.3980 82.6375 main 2173 2173 P____P____P_P_ SH071989 -13.5000 82.8500 35 0 -13.1000 82.0000 3 28 997 -13.4919 82.8500 2 36 -13.5000 82.8500 TC 35 1 163
1989018S10082 1989 6 SI MM EDME 1989-01-20 18:00:00 TS -13.4712 82.6750 main 2185 2185 O____O____P_O_ jtwc_sh SH071989 -13.6000 82.9000 35 0 -13.1000 82.0000 3 28 997 2.50000 2.50000 -13.5850 82.9000 2 37 -13.6000 82.9000 TC 35 2 150
1989018S10082 1989 6 SI MM EDME 1989-01-20 21:00:00 TS -13.5589 82.7269 main 2197 2197 P____P____P_P_ SH071989 -13.7000 82.9575 37 0 -13.1500 82.0425 3 32 994 -13.6856 82.9500 2 38 -13.7000 82.9575 TC 37 2 152
1989018S10082 1989 6 SI MM EDME 1989-01-21 00:00:00 TS -13.6500 82.7750 main 2198 2198 O____O____O_O_ jtwc_sh SH071989 -13.8000 83.0000 40 0 -13.2000 82.1000 3 36 991 3.00000 3.00000 -13.8000 83.0000 2 40 -13.8000 83.0000 TC 40 2 155
1989018S10082 1989 6 SI MM EDME 1989-01-21 03:00:00 TS -13.7155 82.7925 main 2209 2209 P____P____P_P_ SH071989 -13.8850 82.9925 42 0 -13.1850 82.1350 3 36 991 -13.9072 83.0500 2 41 -13.8850 82.9925 TC 42 2 160
1989018S10082 1989 6 SI MM EDME 1989-01-21 06:00:00 TS -13.8081 82.8250 main 2220 2220 O____O____P_O_ jtwc_sh SH071989 -14.0000 83.0000 45 0 -13.2000 82.2000 3 36 991 3.00000 3.00000 -14.0325 83.1001 2 42 -14.0000 83.0000 TC 45 3 154
1989018S10082 1989 6 SI MM EDME 1989-01-21 09:00:00 TS -13.9591 82.9156 main 2235 2226 P____P____P_P_ SH071989 -14.1700 83.0925 45 0 -13.3050 82.3275 3 36 991 -14.1916 83.1501 2 43 -14.1700 83.0925 TC 45 4 152
1989018S10082 1989 6 SI MM EDME 1989-01-21 12:00:00 TS -14.1750 83.0250 main 2240 2231 O____O____O_O_ jtwc_sh SH071989 -14.4000 83.2000 45 0 -13.5000 82.5000 3 36 991 3.00000 3.00000 -14.4000 83.2000 2 45 -14.4000 83.2000 TC 45 5 157
1989018S10082 1989 6 SI MM EDME 1989-01-21 15:00:00 TS -14.4454 83.1255 main 2245 2243 P____P____P_P_ SH071989 -14.6775 83.2575 47 0 -13.7550 82.7149 3 36 991 -14.6718 83.2720 2 47 -14.6775 83.2575 TC 47 6 163
1989018S10082 1989 6 SI MM EDME 1989-01-21 18:00:00 TS -14.7730 83.2102 main 2264 2264 O____O____P_O_ jtwc_sh SH071989 -15.0000 83.3000 50 0 -14.1000 82.9000 3 36 991 3.00000 3.00000 -14.9921 83.3406 2 50 -15.0000 83.3000 TC 50 7 168
1989018S10082 1989 6 SI MM EDME 1989-01-21 21:00:00 TS -15.1366 83.2747 main 2277 2277 P____P____P_P_ SH071989 -15.3425 83.3649 52 0 -14.5200 82.9801 3 40 987 -15.3414 83.3890 2 52 -15.3425 83.3649 TC 52 8 173
1989018S10082 1989 6 SI MM EDME 1989-01-22 00:00:00 TS -15.5250 83.3000 main 2306 2306 O____O____O_O_ jtwc_sh SH071989 -15.7000 83.4000 55 0 -15.0000 83.0000 3 44 984 3.50000 3.50000 -15.7000 83.4000 2 55 -15.7000 83.4000 TC 55 8 0
1989018S10082 1989 6 SI MM EDME 1989-01-22 03:00:00 TS -15.9042 83.2820 main 2335 2335 P____P____P_P_ SH071989 -16.0425 83.3725 60 0 -15.4925 83.0150 3 44 984 -16.0394 83.3679 2 60 -16.0425 83.3725 TC 60 8 185
1989018S10082 1989 6 SI MM EDME 1989-01-22 06:00:00 TS -16.3000 83.2250 main 2373 2373 O____O____O_O_ jtwc_sh SH071989 -16.4000 83.3000 65 1 -16.0000 83.0000 3 44 984 3.50000 3.50000 -16.4000 83.3000 3 65 -16.4000 83.3000 TC 65 8 189
1989018S10082 1989 6 SI MM EDME 1989-01-22 09:00:00 TS -16.7304 83.1526 main 2403 2403 P____P____P_P_ SH071989 -16.8075 83.2150 65 1 -16.5075 82.9650 3 48 980 -16.7992 83.2154 3 65 -16.8075 83.2150 TC 65 9 191
1989018S10082 1989 6 SI MM EDME 1989-01-22 12:00:00 TS -17.1500 83.0500 main 2442 2449 O____O____O_O_ jtwc_sh SH071989 -17.2000 83.1000 65 1 -17.0000 82.9000 3 52 976 4.00000 4.00000 -17.2000 83.1000 4 65 -17.2000 83.1000 TC 65 8 195
1989018S10082 1989 6 SI MM EDME 1989-01-22 15:00:00 TS -17.5137 82.9294 main 2488 2488 P____P____P_P_ SH071989 -17.5075 82.9649 70 1 -17.4649 82.8298 3 52 976 -17.5749 82.9579 4 71 -17.5075 82.9649 TC 70 8 201
1989018S10082 1989 6 SI MM EDME 1989-01-22 18:00:00 TS -17.8554 82.7719 main 2526 2526 O____O____P_O_ jtwc_sh SH071989 -17.8000 82.8000 75 1 -17.9000 82.7000 3 52 976 4.00000 4.00000 -17.9216 82.7876 4 77 -17.8000 82.8000 TC 75 8 206
1989018S10082 1989 6 SI MM EDME 1989-01-22 21:00:00 TS -18.2194 82.5678 main 2565 2565 P____P____P_P_ SH071989 -18.1575 82.6075 82 1 -18.3301 82.4577 3 52 976 -18.2325 82.5985 4 83 -18.1575 82.6075 TC 82 8 210
1989018S10082 1989 6 SI MM EDME 1989-01-23 00:00:00 TS -18.5500 82.3500 main 2585 2559 O____O____O_O_ jtwc_sh SH071989 -18.5000 82.4000 90 2 -18.7000 82.2000 3 52 976 4.00000 4.00000 -18.5000 82.4000 4 90 -18.5000 82.4000 TC 90 7 213
1989018S10082 1989 6 SI MM EDME 1989-01-23 03:00:00 TS -18.8088 82.1678 main 2559 2536 P____P____P_P_ SH071989 -18.7875 82.2000 97 3 -18.9423 82.0645 3 52 976 -18.7181 82.2069 4 95 -18.7875 82.2000 TC 97 6 217
1989018S10082 1989 6 SI MM EDME 1989-01-23 06:00:00 TS -19.0237 81.9768 main 2536 2501 O____O____P_O_ jtwc_sh SH071989 -19.0000 82.0000 105 3 -19.2000 81.9000 3 52 976 4.00000 4.00000 -18.8949 82.0071 4 100 -19.0000 82.0000 TC 105 6 224
1989018S10082 1989 6 SI MM EDME 1989-01-23 09:00:00 TS -19.2305 81.7348 main 2501 2478 P____P____P_P_ SH071989 -19.1150 81.7924 107 3 -19.6427 81.5505 3 57 971 -19.0493 81.8038 4 105 -19.1150 81.7924 TC 107 6 228
1989018S10082 1989 6 SI MM EDME 1989-01-23 12:00:00 TS -19.4250 81.5000 main 2478 2465 O____O____O_O_ jtwc_sh SH071989 -19.2000 81.6000 110 3 -20.1000 81.2000 3 62 966 4.50000 4.50000 -19.2000 81.6000 4 110 -19.2000 81.6000 TC 110 5 224
1989018S10082 1989 6 SI MM EDME 1989-01-23 15:00:00 TS -19.6113 81.3491 main 2455 2442 P____P____P_P_ SH071989 -19.3349 81.4574 112 3 -20.4373 81.0421 3 62 966 -19.3380 81.4396 4 110 -19.3349 81.4574 TC 112 5 218
1989018S10082 1989 6 SI MM EDME 1989-01-23 18:00:00 TS -19.7954 81.1933 main 2442 2419 O____O____P_O_ jtwc_sh SH071989 -19.5000 81.3000 115 4 -20.7000 80.9000 3 62 966 4.50000 4.50000 -19.4817 81.2733 4 110 -19.5000 81.3000 TC 115 5 225
1989018S10082 1989 6 SI MM EDME 1989-01-23 21:00:00 TS -19.9692 80.9687 main 2419 2386 P____P____P_P_ SH071989 -19.6623 81.1021 112 3 -20.8926 80.6000 3 57 971 -19.6597 81.0704 4 110 -19.6623 81.1021 TC 112 6 230
1989018S10082 1989 6 SI MM EDME 1989-01-24 00:00:00 TS -20.2000 80.6750 main 2386 2342 O____O____O_O_ jtwc_sh SH071989 -19.9000 80.8000 110 3 -21.1000 80.3000 3 52 976 4.00000 4.00000 -19.9000 80.8000 4 110 -19.9000 80.8000 TC 110 9 226
1989018S10082 1989 6 SI MM EDME 1989-01-24 03:00:00 TS -20.5594 80.3199 main 2342 2299 P____P____P_P_ SH071989 -20.2702 80.3228 107 3 -21.4496 80.1871 3 52 976 -20.2474 80.4467 4 105 -20.2702 80.3228 TC 107 11 223
1989018S10082 1989 6 SI MM EDME 1989-01-24 06:00:00 TS -20.9637 79.9051 52 976 reunion main 2298 2256 O____O____P_O_ jtwc_sh SH071989 -20.7000 79.8000 105 3 -21.8000 80.0000 3 52 976 4.00000 4.00000 -20.6547 80.0205 4 100 -20.7000 79.8000 TC 105 11 226
1989018S10082 1989 6 SI MM EDME 1989-01-24 09:00:00 TS -21.3209 79.4737 main 2256 2204 P____P____P_P_ SH071989 -21.0996 79.4070 97 3 -21.9998 79.5469 3 48 980 -21.0847 79.5339 4 95 -21.0996 79.4070 TC 97 11 231
1989018S10082 1989 6 SI MM EDME 1989-01-24 12:00:00 TS -21.6750 78.9750 44 984 reunion main 2204 2142 O____O____O_O_ jtwc_sh SH071989 -21.5000 79.0000 90 2 -22.2000 78.9000 3 44 984 3.50000 3.50000 -21.5000 79.0000 4 90 -21.5000 79.0000 TC 90 13 234
1989018S10082 1989 6 SI MM EDME 1989-01-24 15:00:00 TS -22.0546 78.3814 main 2142 2082 P____P____P_P_ SH071989 -21.9224 78.4875 82 1 -22.5356 78.1006 3 40 987 -21.8383 78.4501 4 83 -21.9224 78.4875 TC 82 14 237
1989018S10082 1989 6 SI MM EDME 1989-01-24 18:00:00 TS -22.4143 77.7396 36 991 reunion main 2072 2012 O____O____P_O_ jtwc_sh SH071989 -22.3000 77.9000 75 1 -22.9000 77.3000 3 36 991 3.00000 3.00000 -22.1572 77.8583 4 77 -22.3000 77.9000 TC 75 13 242
1989018S10082 1989 6 SI MM EDME 1989-01-24 21:00:00 TS -22.6855 77.1137 main 2012 1954 P____P____P_P_ SH071989 -22.5576 77.2495 70 1 -23.1543 76.7187 3 32 994 -22.4725 77.2374 4 71 -22.5576 77.2495 TC 70 13 244
1989018S10082 1989 6 SI MM EDME 1989-01-25 00:00:00 TS -22.9750 76.5000 28 997 reunion main 1954 1906 O____O____O_O_ jtwc_sh SH071989 -22.8000 76.6000 65 1 -23.5000 76.2000 3 28 997 2.50000 2.50000 -22.8000 76.6000 4 65 -22.8000 76.6000 TC 65 13 238
1989018S10082 1989 6 SI MM EDME 1989-01-25 03:00:00 TS -23.3745 75.9270 main 1897 1851 P____P____P_P_ SH071989 -23.1268 76.0644 60 0 -24.1050 75.6004 3 28 997 -23.1394 75.9788 4 60 -23.1268 76.0644 TC 60 14 232
1989018S10082 1989 6 SI MM EDME 1989-01-25 06:00:00 MX -23.8240 75.3355 28 997 reunion main 1843 1791 O____O____P_O_ jtwc_sh SH071989 -23.5000 75.5000 55 0 -24.8000 75.0000 5 28 997 2.50000 2.50000 -23.4961 75.3422 4 55 -23.5000 75.5000 TC 55 15 232
1989018S10082 1989 6 SI MM EDME 1989-01-25 09:00:00 MX -24.2718 74.6716 main 1793 1733 P____P____P_P_ SH071989 -23.9000 74.7800 50 0 -25.4072 74.4417 5 26 998 -23.8798 74.6845 4 50 -23.9000 74.7800 TC 50 15 234
1989018S10082 1989 6 SI MM EDME 1989-01-25 12:00:00 MX -24.7250 73.9750 24 1000 reunion main 1733 1676 O____O____O_O_ jtwc_sh SH071989 -24.3000 74.0000 45 0 -26.0000 73.9000 5 24 1000 2.00000 2.00000 -24.3000 74.0000 2 45 -24.3000 74.0000 TC 45 15 237
1989018S10082 1989 6 SI MM EDME 1989-01-25 15:00:00 MX -25.1075 73.2404 main 1666 1621 P____P____P_P_ SH071989 -24.6121 73.2486 37 0 -26.5699 73.3416 5 26 998 -24.6359 73.1229 2 40 -24.6121 73.2486 TC 37 16 238
1989018S10082 1989 6 SI MM EDME 1989-01-25 18:00:00 MX -25.5561 72.5107 28 997 reunion main 1615 1568 O____O____P_O_ jtwc_sh SH071989 -25.0000 72.5000 30 -1 -27.2000 72.8000 5 28 997 2.50000 2.50000 -25.0244 72.2429 2 35 -25.0000 72.5000 TC 30 17 232
1989018S10082 1989 6 SI MM EDME 1989-01-25 21:00:00 MX -26.1566 71.7654 main 1572 1551 P____P____P_P_ SH071989 -25.5382 71.6464 27 -1 -27.9999 72.2778 5 32 994 -25.5502 71.4912 2 30 -25.5382 71.6464 TC 27 19 217
1989018S10082 1989 6 SI MM EDME 1989-01-26 00:00:00 MX -27.0692 71.2462 36 991 reunion main 1556 1556 O____O____O_O_ jtwc_sh SH071989 -26.3000 71.0000 25 -1 -28.8000 71.8000 5 36 991 3.00000 3.00000 -26.3000 71.0000 1 25 -26.3000 71.0000 TC 25 21 198
1989018S10082 1989 6 SI MM EDME 1989-01-26 03:00:00 MX -28.1781 71.0378 main 1596 1596 P____P____P_P_ SH071989 -27.3245 70.8078 22 -1 -29.4599 71.3621 5 36 994 -27.3217 70.8494 1 22 -27.3245 70.8078 TC 22 23 186
1989018S10082 1989 6 SI MM EDME 1989-01-26 06:00:00 MX -29.3571 70.9571 36 997 reunion main 1666 1658 O____O____O_O_ jtwc_sh SH071989 -28.5000 70.9000 20 -1 -30.0000 71.0000 5 36 997 3.00000 3.00000 -28.5000 70.9000 1 20 -28.5000 70.9000 TC 20 23 187
1989018S10082 1989 6 SI MM EDME 1989-01-26 09:00:00 ET -30.4373 70.7268 main 1707 1707 _____P________ SH071989 -1 -30.4373 70.7268 5 32 997 1 TC 15 195
1989018S10082 1989 6 SI MM EDME 1989-01-26 12:00:00 ET -30.8000 70.5000 28 997 reunion main 1720 1719 _____O________ -1 -30.8000 70.5000 5 28 997 2.50000 2.50000 9 211
1989018S10082 1989 6 SI MM EDME 1989-01-26 15:00:00 ET -31.1651 70.2127 main 1726 1726 _____P________ -1 -31.1651 70.2127 5 28 987 8 211
1989018S10082 1989 6 SI MM EDME 1989-01-26 18:00:00 ET -31.5000 70.0000 28 977 reunion main 1734 1734 _____O________ -1 -31.5000 70.0000 5 28 977 2.50000 2.50000 7 199
1989018S10082 1989 6 SI MM EDME 1989-01-26 21:00:00 ET -31.7849 69.9621 main 1757 1757 _____P________ -1 -31.7849 69.9621 5 26 988 6 179
1989018S10082 1989 6 SI MM EDME 1989-01-27 00:00:00 ET -32.1000 70.0000 24 1000 reunion main 1780 1780 _____O________ -1 -32.1000 70.0000 5 24 1000 2.00000 2.00000 7 177
1989018S10082 1989 6 SI MM EDME 1989-01-27 03:00:00 ET -32.5200 70.0000 main 1811 1759 _____P________ -1 -32.5200 70.0000 5 24 1000 9 0
1989018S10082 1989 6 SI MM EDME 1989-01-27 06:00:00 ET -33.0000 70.0000 24 1000 reunion main 1759 1704 _____O________ -1 -33.0000 70.0000 5 24 1000 2.00000 2.00000 10 0
1989018S10082 1989 6 SI MM EDME 1989-01-27 09:00:00 ET -33.4975 70.0000 main 1704 1648 _____P________ -1 -33.4975 70.0000 5 30 10 179
1989018S10082 1989 6 SI MM EDME 1989-01-27 12:00:00 TS -34.0000 70.0000 36 reunion main 1648 _____O________ -1 -34.0000 70.0000 6 36 9.90000 10 0

IBTrACS Databaseについて

本データベースは、米国NOAAが公開する1842年以降の世界の熱帯低気圧のベストトラックデータアーカイブInternational Best Track Archive for Climate Stewardship (IBTrACS)を、ウェブで閲覧しやすい形式に変換したものです。

最終更新日:2021-10-25